createdAt,value
2023-01-07T00:01:16.924Z,98575.00
2023-01-07T00:03:53.124Z,98575.00
2023-01-07T00:06:32.680Z,98564.00
2023-01-07T00:09:12.378Z,98560.00
2023-01-07T00:11:47.321Z,98568.00
2023-01-07T00:14:22.249Z,98570.00
2023-01-07T00:16:57.168Z,98566.00
2023-01-07T00:19:32.091Z,98566.00
2023-01-07T00:22:07.056Z,98559.00
2023-01-07T00:24:42.001Z,98566.00
2023-01-07T00:27:16.931Z,98548.00
2023-01-07T00:29:51.814Z,98561.00
2023-01-07T00:32:47.344Z,98560.00
2023-01-07T00:35:24.808Z,98559.00
2023-01-07T00:37:59.985Z,98544.00
2023-01-07T00:40:34.879Z,98544.00
2023-01-07T00:43:09.869Z,98531.00
2023-01-07T00:45:44.922Z,98531.00
2023-01-07T00:48:21.464Z,98536.00
2023-01-07T00:50:56.353Z,98531.00
2023-01-07T00:53:31.525Z,98530.00
2023-01-07T00:56:06.812Z,98524.00
2023-01-07T00:58:42.381Z,98522.00
2023-01-07T01:01:17.695Z,98522.00
2023-01-07T01:03:53.707Z,98527.00
2023-01-07T01:06:28.577Z,98531.00
2023-01-07T01:09:03.675Z,98530.00
2023-01-07T01:11:39.078Z,98525.00
2023-01-07T01:14:14.028Z,98524.00
2023-01-07T01:16:48.993Z,98519.00
2023-01-07T01:19:24.057Z,98517.00
2023-01-07T01:21:59.153Z,98526.00
2023-01-07T01:24:34.058Z,98518.00
2023-01-07T01:27:10.096Z,98515.00
2023-01-07T01:29:45.047Z,98515.00
2023-01-07T01:32:21.012Z,98512.00
2023-01-07T01:34:56.013Z,98508.00
2023-01-07T01:37:30.949Z,98519.00
2023-01-07T01:40:07.445Z,98521.00
2023-01-07T01:42:42.363Z,98510.00
2023-01-07T01:45:21.148Z,98513.00
2023-01-07T01:48:14.076Z,98504.00
2023-01-07T01:50:50.741Z,98503.00
2023-01-07T01:53:31.141Z,98502.00
2023-01-07T01:56:19.316Z,98492.00
2023-01-07T01:59:10.039Z,98495.00
2023-01-07T02:01:46.201Z,98493.00
2023-01-07T02:04:26.317Z,98492.00
2023-01-07T02:07:10.773Z,98495.00
2023-01-07T02:10:17.572Z,98496.00
2023-01-07T02:13:24.692Z,98486.00
2023-01-07T02:16:19.393Z,98482.00
2023-01-07T02:19:44.780Z,98487.00
2023-01-07T02:22:47.365Z,98480.00
2023-01-07T02:25:30.894Z,98472.00
2023-01-07T02:28:19.174Z,98475.00
2023-01-07T02:31:28.482Z,98471.00
2023-01-07T02:35:03.845Z,98474.00
2023-01-07T02:38:14.049Z,98469.00
2023-01-07T02:41:01.404Z,98460.00
2023-01-07T02:44:05.446Z,98461.00
2023-01-07T02:46:52.619Z,98455.00
2023-01-07T02:49:28.990Z,98448.00
2023-01-07T02:52:24.877Z,98442.00
2023-01-07T02:55:00.948Z,98444.00
2023-01-07T02:58:08.176Z,98436.00
2023-01-07T03:01:28.615Z,98439.00
2023-01-07T03:04:35.357Z,98430.00
2023-01-07T03:07:33.592Z,98424.00
2023-01-07T03:10:12.708Z,98427.00
2023-01-07T03:13:00.663Z,98421.00
2023-01-07T03:15:50.417Z,98418.00
2023-01-07T03:18:41.810Z,98421.00
2023-01-07T03:21:18.971Z,98416.00
2023-01-07T03:23:57.340Z,98409.00
2023-01-07T03:26:40.650Z,98411.00
2023-01-07T03:29:17.885Z,98392.00
2023-01-07T03:32:13.517Z,98396.00
2023-01-07T03:34:48.670Z,98396.00
2023-01-07T03:37:26.625Z,98396.00
2023-01-07T03:40:06.477Z,98390.00
2023-01-07T03:42:42.381Z,98395.00
2023-01-07T03:45:25.404Z,98397.00
2023-01-07T03:48:03.064Z,98385.00
2023-01-07T03:50:43.823Z,98395.00
2023-01-07T03:53:19.374Z,98385.00
2023-01-07T03:55:57.531Z,98380.00
2023-01-07T03:58:32.422Z,98378.00
2023-01-07T04:01:07.469Z,98372.00
2023-01-07T04:03:42.501Z,98374.00
2023-01-07T04:06:17.397Z,98364.00
2023-01-07T04:08:52.355Z,98358.00
2023-01-07T04:11:27.373Z,98361.00
2023-01-07T04:14:02.464Z,98362.00
2023-01-07T04:16:38.726Z,98353.00
2023-01-07T04:19:13.895Z,98358.00
2023-01-07T04:21:48.919Z,98357.00
2023-01-07T04:24:23.833Z,98355.00
2023-01-07T04:26:59.058Z,98351.00
2023-01-07T04:29:33.929Z,98348.00
2023-01-07T04:32:09.354Z,98350.00
2023-01-07T04:34:44.202Z,98345.00
2023-01-07T04:37:20.044Z,98339.00
2023-01-07T04:39:55.066Z,98342.00
2023-01-07T04:42:30.192Z,98344.00
2023-01-07T04:45:05.806Z,98335.00
2023-01-07T04:47:40.707Z,98335.00
2023-01-07T04:50:16.405Z,98329.00
2023-01-07T04:52:53.267Z,98335.00
2023-01-07T04:55:30.390Z,98329.00
2023-01-07T04:58:05.478Z,98323.00
2023-01-07T05:00:42.224Z,98321.00
2023-01-07T05:03:19.882Z,98325.00
2023-01-07T05:05:55.783Z,98315.00
2023-01-07T05:08:30.688Z,98314.00
2023-01-07T05:11:06.103Z,98311.00
2023-01-07T05:13:41.978Z,98316.00
2023-01-07T05:16:17.368Z,98310.00
2023-01-07T05:18:52.763Z,98310.00
2023-01-07T05:21:27.946Z,98309.00
2023-01-07T05:24:03.170Z,98308.00
2023-01-07T05:26:38.024Z,98303.00
2023-01-07T05:29:13.260Z,98300.00
2023-01-07T05:31:50.178Z,98297.00
2023-01-07T05:34:25.984Z,98292.00
2023-01-07T05:37:00.988Z,98297.00
2023-01-07T05:39:37.060Z,98284.00
2023-01-07T05:42:13.321Z,98290.00
2023-01-07T05:44:48.223Z,98287.00
2023-01-07T05:47:23.164Z,98283.00
2023-01-07T05:49:58.005Z,98279.00
2023-01-07T05:52:32.830Z,98278.00
2023-01-07T05:55:08.551Z,98266.00
2023-01-07T05:57:43.451Z,98267.00
2023-01-07T06:00:18.623Z,98264.00
2023-01-07T06:02:53.524Z,98255.00
2023-01-07T06:05:28.501Z,98263.00
2023-01-07T06:08:03.509Z,98256.00
2023-01-07T06:10:38.375Z,98259.00
2023-01-07T06:13:13.282Z,98254.00
2023-01-07T06:15:48.183Z,98249.00
2023-01-07T06:18:23.041Z,98253.00
2023-01-07T06:20:57.880Z,98249.00
2023-01-07T06:23:32.843Z,98249.00
2023-01-07T06:26:07.661Z,98255.00
2023-01-07T06:28:42.490Z,98255.00
2023-01-07T06:31:17.438Z,98247.00
2023-01-07T06:33:52.374Z,98246.00
2023-01-07T06:36:27.319Z,98256.00
2023-01-07T06:39:02.196Z,98248.00
2023-01-07T06:41:37.167Z,98243.00
2023-01-07T06:44:12.072Z,98240.00
2023-01-07T06:46:46.954Z,98236.00
2023-01-07T06:49:22.014Z,98230.00
2023-01-07T06:51:56.980Z,98228.00
2023-01-07T06:54:31.920Z,98228.00
2023-01-07T06:57:06.759Z,98227.00
2023-01-07T06:59:41.670Z,98232.00
2023-01-07T07:02:23.285Z,98228.00
2023-01-07T07:04:58.257Z,98224.00
2023-01-07T07:07:33.179Z,98231.00
2023-01-07T07:10:08.916Z,98230.00
2023-01-07T07:12:43.867Z,98231.00
2023-01-07T07:15:19.031Z,98222.00
2023-01-07T07:17:53.906Z,98223.00
2023-01-07T07:20:28.803Z,98221.00
2023-01-07T07:23:03.913Z,98218.00
2023-01-07T07:25:38.830Z,98222.00
2023-01-07T07:28:13.738Z,98218.00
2023-01-07T07:30:48.648Z,98220.00
2023-01-07T07:33:23.666Z,98227.00
2023-01-07T07:35:58.571Z,98227.00
2023-01-07T07:38:33.489Z,98222.00
2023-01-07T07:41:08.384Z,98225.00
2023-01-07T07:43:43.434Z,98214.00
2023-01-07T07:46:18.391Z,98214.00
2023-01-07T07:48:53.257Z,98198.00
2023-01-07T07:51:28.626Z,98207.00
2023-01-07T07:54:03.613Z,98202.00
2023-01-07T07:56:38.532Z,98191.00
2023-01-07T07:59:13.397Z,98196.00
2023-01-07T08:01:48.733Z,98194.00
2023-01-07T08:04:23.751Z,98199.00
2023-01-07T08:06:58.577Z,98193.00
2023-01-07T08:09:33.426Z,98185.00
2023-01-07T08:12:08.313Z,98192.00
2023-01-07T08:14:43.915Z,98185.00
2023-01-07T08:17:18.880Z,98183.00
2023-01-07T08:19:53.729Z,98184.00
2023-01-07T08:22:28.658Z,98177.00
2023-01-07T08:25:03.828Z,98181.00
2023-01-07T08:27:38.685Z,98176.00
2023-01-07T08:30:13.897Z,98183.00
2023-01-07T08:32:49.131Z,98179.00
2023-01-07T08:35:24.119Z,98174.00
2023-01-07T08:38:08.060Z,98173.00
2023-01-07T08:40:44.205Z,98171.00
2023-01-07T08:43:19.040Z,98171.00
2023-01-07T08:45:54.248Z,98171.00
2023-01-07T08:48:29.122Z,98166.00
2023-01-07T08:51:03.965Z,98159.00
2023-01-07T08:53:38.834Z,98165.00
2023-01-07T08:56:13.669Z,98168.00
2023-01-07T08:58:48.747Z,98160.00
2023-01-07T09:01:23.706Z,98153.00
2023-01-07T09:03:58.634Z,98160.00
2023-01-07T09:06:33.575Z,98148.00
2023-01-07T09:09:08.989Z,98148.00
2023-01-07T09:11:44.104Z,98156.00
2023-01-07T09:14:18.935Z,98152.00
2023-01-07T09:16:53.821Z,98156.00
2023-01-07T09:19:28.725Z,98152.00
2023-01-07T09:22:03.552Z,98157.00
2023-01-07T09:24:38.387Z,98145.00
2023-01-07T09:27:13.209Z,98155.00
2023-01-07T09:29:48.144Z,98156.00
2023-01-07T09:32:22.994Z,98152.00
2023-01-07T09:34:58.280Z,98152.00
2023-01-07T09:37:33.189Z,98154.00
2023-01-07T09:40:15.452Z,98154.00
2023-01-07T09:43:12.599Z,98158.00
2023-01-07T09:45:53.226Z,98156.00
2023-01-07T09:48:39.565Z,98156.00
2023-01-07T09:51:37.076Z,98149.00
2023-01-07T09:54:30.685Z,98141.00
2023-01-07T09:57:06.317Z,98147.00
2023-01-07T09:59:41.210Z,98137.00
2023-01-07T10:02:24.017Z,98150.00
2023-01-07T10:05:20.164Z,98137.00
2023-01-07T10:08:29.230Z,98129.00
2023-01-07T10:11:30.365Z,98130.00
2023-01-07T10:14:44.321Z,98131.00
2023-01-07T10:18:17.783Z,98119.00
2023-01-07T10:21:23.917Z,98129.00
2023-01-07T10:24:35.887Z,98109.00
2023-01-07T10:27:15.264Z,98101.00
2023-01-07T10:29:55.516Z,98101.00
2023-01-07T10:32:33.977Z,98093.00
2023-01-07T10:35:19.059Z,98094.00
2023-01-07T10:37:57.973Z,98100.00
2023-01-07T10:40:49.589Z,98088.00
2023-01-07T10:43:54.166Z,98087.00
2023-01-07T10:46:49.999Z,98074.00
2023-01-07T10:49:59.392Z,98072.00
2023-01-07T10:53:31.777Z,98074.00
2023-01-07T10:56:48.086Z,98061.00
2023-01-07T10:59:23.594Z,98045.00
2023-01-07T11:01:59.852Z,98048.00
2023-01-07T11:04:34.772Z,98041.00
2023-01-07T11:07:46.045Z,98039.00
2023-01-07T11:10:30.053Z,98037.00
2023-01-07T11:13:24.816Z,98027.00
2023-01-07T11:16:27.704Z,98024.00
2023-01-07T11:19:10.139Z,98014.00
2023-01-07T11:21:48.925Z,98006.00
2023-01-07T11:24:34.747Z,98007.00
2023-01-07T11:27:18.514Z,98006.00
2023-01-07T11:30:10.782Z,98002.00
2023-01-07T11:32:57.806Z,97995.00
2023-01-07T11:35:33.146Z,97987.00
2023-01-07T11:38:34.477Z,97980.00
2023-01-07T11:41:25.982Z,97981.00
2023-01-07T11:44:01.074Z,97973.00
2023-01-07T11:46:36.097Z,97968.00
2023-01-07T11:49:32.839Z,97969.00
2023-01-07T11:52:20.344Z,97963.00
2023-01-07T11:54:55.390Z,97956.00
2023-01-07T11:57:30.565Z,97962.00
2023-01-07T12:00:19.794Z,97948.00
2023-01-07T12:03:04.629Z,97941.00
2023-01-07T12:05:41.629Z,97930.00
2023-01-07T12:08:22.389Z,97932.00
2023-01-07T12:11:06.044Z,97932.00
2023-01-07T12:13:50.470Z,97918.00
2023-01-07T12:16:30.669Z,97914.00
2023-01-07T12:19:34.561Z,97905.00
2023-01-07T12:22:48.537Z,97891.00
2023-01-07T12:26:08.840Z,97888.00
2023-01-07T12:29:09.149Z,97873.00
2023-01-07T12:32:38.928Z,97875.00
2023-01-07T12:35:36.293Z,97865.00
2023-01-07T12:38:39.246Z,97850.00
2023-01-07T12:41:24.178Z,97850.00
2023-01-07T12:44:22.088Z,97851.00
2023-01-07T12:47:30.716Z,97842.00
2023-01-07T12:50:25.847Z,97841.00
2023-01-07T12:53:24.359Z,97833.00
2023-01-07T12:56:16.145Z,97831.00
2023-01-07T12:59:45.961Z,97831.00
2023-01-07T13:02:40.673Z,97824.00
2023-01-07T13:05:26.278Z,97826.00
2023-01-07T13:08:04.217Z,97826.00
2023-01-07T13:10:49.202Z,97826.00
2023-01-07T13:13:37.689Z,97825.00
2023-01-07T13:16:12.987Z,97819.00
2023-01-07T13:18:47.919Z,97811.00
2023-01-07T13:21:23.201Z,97817.00
2023-01-07T13:24:55.884Z,97812.00
2023-01-07T13:27:59.383Z,97805.00
2023-01-07T13:31:10.852Z,97797.00
2023-01-07T13:34:26.625Z,97787.00
2023-01-07T13:37:53.860Z,97789.00
2023-01-07T13:41:01.034Z,97792.00
2023-01-07T13:44:01.163Z,97783.00
2023-01-07T13:46:42.926Z,97792.00
2023-01-07T13:49:30.417Z,97786.00
2023-01-07T13:52:18.530Z,97785.00
2023-01-07T13:55:13.076Z,97780.00
2023-01-07T13:57:48.964Z,97768.00
2023-01-07T14:01:01.104Z,97774.00
2023-01-07T14:03:53.095Z,97771.00
2023-01-07T14:06:44.927Z,97779.00
2023-01-07T14:09:25.858Z,97770.00
2023-01-07T14:12:20.738Z,97771.00
2023-01-07T14:15:17.432Z,97768.00
2023-01-07T14:18:25.999Z,97771.00
2023-01-07T14:21:45.722Z,97778.00
2023-01-07T14:25:23.969Z,97780.00
2023-01-07T14:28:33.778Z,97782.00
2023-01-07T14:31:29.916Z,97775.00
2023-01-07T14:34:25.293Z,97783.00
2023-01-07T14:37:08.849Z,97783.00
2023-01-07T14:39:46.420Z,97771.00
2023-01-07T14:42:42.151Z,97777.00
2023-01-07T14:45:39.109Z,97779.00
2023-01-07T14:48:16.828Z,97777.00
2023-01-07T14:51:46.861Z,97781.00
2023-01-07T14:54:33.215Z,97784.00
2023-01-07T14:57:56.713Z,97781.00
2023-01-07T15:01:08.119Z,97789.00
2023-01-07T15:04:32.651Z,97780.00
2023-01-07T15:07:17.401Z,97778.00
2023-01-07T15:10:14.139Z,97774.00
2023-01-07T15:13:13.883Z,97771.00
2023-01-07T15:16:02.283Z,97770.00
2023-01-07T15:18:54.241Z,97768.00
2023-01-07T15:21:49.350Z,97774.00
2023-01-07T15:25:01.742Z,97770.00
2023-01-07T15:27:57.635Z,97767.00
2023-01-07T15:30:44.984Z,97758.00
2023-01-07T15:34:08.423Z,97761.00
2023-01-07T15:36:50.855Z,97753.00
2023-01-07T15:39:33.807Z,97762.00
2023-01-07T15:42:21.283Z,97760.00
2023-01-07T15:45:00.050Z,97750.00
2023-01-07T15:47:41.457Z,97755.00
2023-01-07T15:50:29.984Z,97748.00
2023-01-07T15:53:11.020Z,97749.00
2023-01-07T15:55:48.912Z,97749.00
2023-01-07T15:58:44.850Z,97738.00
2023-01-07T16:01:25.072Z,97750.00
2023-01-07T16:04:00.109Z,97742.00
2023-01-07T16:06:39.184Z,97740.00
2023-01-07T16:09:21.232Z,97739.00
2023-01-07T16:11:56.439Z,97736.00
2023-01-07T16:14:37.147Z,97740.00
2023-01-07T16:17:16.137Z,97741.00
2023-01-07T16:20:08.561Z,97741.00
2023-01-07T16:22:44.780Z,97748.00
2023-01-07T16:25:56.742Z,97745.00
2023-01-07T16:28:38.401Z,97753.00
2023-01-07T16:31:18.124Z,97754.00
2023-01-07T16:33:57.248Z,97755.00
2023-01-07T16:36:40.629Z,97765.00
2023-01-07T16:39:22.947Z,97758.00
2023-01-07T16:42:16.800Z,97758.00
2023-01-07T16:44:54.572Z,97754.00
2023-01-07T16:47:33.447Z,97753.00
2023-01-07T16:50:14.916Z,97756.00
2023-01-07T16:52:52.821Z,97746.00
2023-01-07T16:55:49.353Z,97747.00
2023-01-07T16:58:39.591Z,97740.00
2023-01-07T17:01:21.644Z,97746.00
2023-01-07T17:04:00.044Z,97746.00
2023-01-07T17:06:41.093Z,97740.00
2023-01-07T17:09:34.379Z,97748.00
2023-01-07T17:12:38.009Z,97741.00
2023-01-07T17:15:33.801Z,97737.00
2023-01-07T17:18:11.883Z,97743.00
2023-01-07T17:20:55.126Z,97737.00
2023-01-07T17:23:30.077Z,97730.00
2023-01-07T17:26:21.300Z,97717.00
2023-01-07T17:29:00.982Z,97715.00
2023-01-07T17:31:40.348Z,97717.00
2023-01-07T17:34:16.344Z,97707.00
2023-01-07T17:36:51.876Z,97707.00
2023-01-07T17:39:26.707Z,97710.00
2023-01-07T17:42:19.912Z,97711.00
2023-01-07T17:44:54.767Z,97711.00
2023-01-07T17:47:29.916Z,97708.00
2023-01-07T17:50:05.391Z,97707.00
2023-01-07T17:52:44.396Z,97704.00
2023-01-07T17:55:25.770Z,97710.00
2023-01-07T17:58:00.746Z,97712.00
2023-01-07T18:00:36.603Z,97707.00
2023-01-07T18:03:11.628Z,97709.00
2023-01-07T18:05:46.535Z,97706.00
2023-01-07T18:08:21.385Z,97706.00
2023-01-07T18:11:15.308Z,97704.00
2023-01-07T18:13:50.217Z,97711.00
2023-01-07T18:16:25.689Z,97721.00
2023-01-07T18:19:00.833Z,97726.00
2023-01-07T18:21:35.709Z,97722.00
2023-01-07T18:24:20.500Z,97723.00
2023-01-07T18:26:56.674Z,97711.00
2023-01-07T18:29:31.671Z,97705.00
2023-01-07T18:32:06.639Z,97701.00
2023-01-07T18:34:41.991Z,97703.00
2023-01-07T18:37:17.803Z,97701.00
2023-01-07T18:39:52.939Z,97708.00
2023-01-07T18:42:31.817Z,97705.00
2023-01-07T18:45:07.630Z,97700.00
2023-01-07T18:47:42.952Z,97701.00
2023-01-07T18:50:18.127Z,97714.00
2023-01-07T18:52:52.953Z,97707.00
2023-01-07T18:55:29.385Z,97705.00
2023-01-07T18:58:06.563Z,97703.00
2023-01-07T19:00:42.185Z,97703.00
2023-01-07T19:03:17.062Z,97705.00
2023-01-07T19:05:52.942Z,97710.00
2023-01-07T19:08:28.263Z,97701.00
2023-01-07T19:11:10.686Z,97695.00
2023-01-07T19:13:45.525Z,97690.00
2023-01-07T19:16:20.702Z,97692.00
2023-01-07T19:18:56.220Z,97695.00
2023-01-07T19:21:31.105Z,97691.00
2023-01-07T19:24:06.600Z,97692.00
2023-01-07T19:26:42.815Z,97682.00
2023-01-07T19:29:19.628Z,97678.00
2023-01-07T19:31:54.520Z,97674.00
2023-01-07T19:34:29.748Z,97680.00
2023-01-07T19:37:04.929Z,97680.00
2023-01-07T19:39:40.514Z,97693.00
2023-01-07T19:42:15.576Z,97691.00
2023-01-07T19:44:50.973Z,97688.00
2023-01-07T19:47:25.999Z,97689.00
2023-01-07T19:50:01.094Z,97701.00
2023-01-07T19:52:35.956Z,97685.00
2023-01-07T19:55:10.798Z,97695.00
2023-01-07T19:57:45.645Z,97683.00
2023-01-07T20:00:21.382Z,97679.00
2023-01-07T20:02:56.261Z,97673.00
2023-01-07T20:05:31.935Z,97678.00
2023-01-07T20:08:07.099Z,97665.00
2023-01-07T20:10:42.628Z,97670.00
2023-01-07T20:13:17.486Z,97679.00
2023-01-07T20:15:53.653Z,97671.00
2023-01-07T20:18:28.521Z,97680.00
2023-01-07T20:21:05.993Z,97676.00
2023-01-07T20:23:42.240Z,97667.00
2023-01-07T20:26:24.784Z,97670.00
2023-01-07T20:29:00.825Z,97659.00
2023-01-07T20:31:35.755Z,97655.00
2023-01-07T20:34:10.700Z,97638.00
2023-01-07T20:36:45.589Z,97635.00
2023-01-07T20:39:20.643Z,97639.00
2023-01-07T20:41:55.493Z,97628.00
2023-01-07T20:44:30.356Z,97624.00
2023-01-07T20:47:05.182Z,97625.00
2023-01-07T20:49:40.305Z,97621.00
2023-01-07T20:52:15.237Z,97634.00
2023-01-07T20:54:50.130Z,97638.00
2023-01-07T20:57:25.055Z,97631.00
2023-01-07T20:59:59.910Z,97633.00
2023-01-07T21:02:35.304Z,97635.00
2023-01-07T21:05:10.433Z,97637.00
2023-01-07T21:07:45.283Z,97624.00
2023-01-07T21:10:20.856Z,97627.00
2023-01-07T21:12:56.172Z,97632.00
2023-01-07T21:15:31.616Z,97630.00
2023-01-07T21:18:06.524Z,97636.00
2023-01-07T21:20:41.525Z,97617.00
2023-01-07T21:23:16.490Z,97620.00
2023-01-07T21:25:51.365Z,97622.00
2023-01-07T21:28:26.555Z,97619.00
2023-01-07T21:31:08.853Z,97624.00
2023-01-07T21:33:44.754Z,97638.00
2023-01-07T21:36:20.918Z,97622.00
2023-01-07T21:38:58.885Z,97623.00
2023-01-07T21:41:33.791Z,97628.00
2023-01-07T21:44:11.974Z,97629.00
2023-01-07T21:46:46.841Z,97623.00
2023-01-07T21:49:21.734Z,97629.00
2023-01-07T21:51:56.612Z,97622.00
2023-01-07T21:54:31.519Z,97627.00
2023-01-07T21:57:06.359Z,97615.00
2023-01-07T21:59:41.217Z,97625.00
2023-01-07T22:02:18.732Z,97625.00
2023-01-07T22:04:53.653Z,97615.00
2023-01-07T22:07:28.561Z,97608.00
2023-01-07T22:10:03.940Z,97611.00
2023-01-07T22:12:39.056Z,97599.00
2023-01-07T22:15:13.992Z,97602.00
2023-01-07T22:17:49.047Z,97599.00
2023-01-07T22:20:23.973Z,97589.00
2023-01-07T22:22:58.831Z,97599.00
2023-01-07T22:25:34.482Z,97587.00
2023-01-07T22:28:10.211Z,97590.00
2023-01-07T22:30:51.840Z,97605.00
2023-01-07T22:33:26.709Z,97594.00
2023-01-07T22:36:02.239Z,97600.00
2023-01-07T22:38:38.357Z,97589.00
2023-01-07T22:41:13.310Z,97599.00
2023-01-07T22:43:48.271Z,97597.00
2023-01-07T22:46:27.528Z,97590.00
2023-01-07T22:49:02.396Z,97585.00
2023-01-07T22:51:45.635Z,97596.00
2023-01-07T22:54:20.766Z,97595.00
2023-01-07T22:56:55.694Z,97577.00
2023-01-07T22:59:30.531Z,97581.00
2023-01-07T23:02:05.979Z,97578.00
2023-01-07T23:04:40.873Z,97572.00
2023-01-07T23:07:15.708Z,97579.00
2023-01-07T23:09:51.633Z,97573.00
2023-01-07T23:12:26.537Z,97578.00
2023-01-07T23:15:01.370Z,97576.00
2023-01-07T23:17:36.200Z,97572.00
2023-01-07T23:20:11.638Z,97571.00
2023-01-07T23:22:47.216Z,97572.00
2023-01-07T23:25:22.040Z,97561.00
2023-01-07T23:27:56.912Z,97558.00
2023-01-07T23:30:31.819Z,97553.00
2023-01-07T23:33:07.360Z,97546.00
2023-01-07T23:35:42.193Z,97533.00
2023-01-07T23:38:17.102Z,97544.00
2023-01-07T23:41:01.447Z,97542.00
2023-01-07T23:43:36.267Z,97540.00
2023-01-07T23:46:11.436Z,97543.00
2023-01-07T23:48:46.489Z,97528.00
2023-01-07T23:51:22.233Z,97528.00
2023-01-07T23:53:57.085Z,97528.00
2023-01-07T23:56:32.531Z,97535.00
2023-01-07T23:59:08.331Z,97530.00
